Time;durP1;ratioP1;P1;durP2;ratioP2;P2;SDS_P1;SDS_P2;PMS_P1;PMS_P2;Temp;Humidity;BMP_temperature;BMP_pressure;BME280_temperature;BME280_humidity;BME280_pressure;Samples;Min_cycle;Max_cycle;Signal;HPM_P1;HPM_P2
2021/06/25 00:01:10;;;;;;;18.13;13.30;;;;;;;15.72;77.55;101241.47;5098291;28;20036;-51
2021/06/25 00:03:35;;;;;;;17.63;12.85;;;;;;;15.63;77.50;101233.72;5063701;28;20038;-51
2021/06/25 00:06:01;;;;;;;17.40;12.70;;;;;;;15.54;78.12;101234.75;5096140;27;20508;-51
2021/06/25 00:08:27;;;;;;;18.92;13.60;;;;;;;15.45;79.00;101224.34;5097714;27;20139;-49
2021/06/25 00:10:53;;;;;;;17.58;13.18;;;;;;;15.47;78.90;101225.22;5096597;28;20130;-51
2021/06/25 00:13:19;;;;;;;17.50;13.20;;;;;;;15.54;78.67;101229.47;5099726;27;20026;-49
2021/06/25 00:15:44;;;;;;;19.20;12.77;;;;;;;15.54;77.65;101225.97;5096951;27;20069;-50
2021/06/25 00:18:10;;;;;;;17.98;13.82;;;;;;;15.45;78.70;101230.50;5097531;28;20046;-51
2021/06/25 00:20:36;;;;;;;16.92;12.75;;;;;;;15.58;77.55;101230.31;5096547;27;20044;-50
2021/06/25 00:23:02;;;;;;;19.42;13.98;;;;;;;15.33;78.98;101234.19;5097729;27;20047;-50
2021/06/25 00:25:29;;;;;;;18.13;13.75;;;;;;;15.09;80.46;101234.56;5097208;28;20038;-49
2021/06/25 00:27:55;;;;;;;21.52;14.63;;;;;;;14.94;80.51;101230.41;5097825;27;20422;-49
2021/06/25 00:30:21;;;;;;;21.73;12.95;;;;;;;14.96;80.57;101220.69;5096689;28;20085;-49
2021/06/25 00:32:47;;;;;;;20.00;13.95;;;;;;;15.01;80.58;101233.78;5094729;28;20106;-50
2021/06/25 00:35:13;;;;;;;20.83;14.25;;;;;;;14.93;81.06;101221.59;5098542;27;20039;-48
2021/06/25 00:37:39;;;;;;;19.20;13.85;;;;;;;14.82;81.76;101228.78;5078260;28;20034;-49
2021/06/25 00:40:06;;;;;;;17.95;13.27;;;;;;;14.87;80.96;101228.72;5097023;28;20035;-48
2021/06/25 00:42:32;;;;;;;17.30;13.43;;;;;;;15.00;80.33;101224.19;5063208;28;20427;-48
2021/06/25 00:45:07;;;;;;;15.98;12.68;;;;;;;14.91;80.90;101226.03;5082253;28;20133;-48
2021/06/25 00:47:32;;;;;;;17.20;13.23;;;;;;;15.00;80.23;101226.81;5077338;28;20039;-50
2021/06/25 00:49:58;;;;;;;16.75;13.43;;;;;;;14.83;81.25;101222.66;5098218;28;20077;-50
2021/06/25 00:52:24;;;;;;;15.32;12.75;;;;;;;14.91;80.35;101220.78;5077127;28;20047;-50
2021/06/25 00:54:50;;;;;;;17.30;12.70;;;;;;;14.91;80.43;101223.41;5098694;28;20127;-49
2021/06/25 00:57:16;;;;;;;18.48;13.77;;;;;;;14.88;81.04;101215.53;5097711;27;20039;-50
2021/06/25 00:59:41;;;;;;;17.20;13.45;;;;;;;14.96;80.09;101211.03;5098361;28;20050;-49
2021/06/25 01:02:08;;;;;;;17.83;14.40;;;;;;;14.79;81.05;101211.28;5095614;28;20040;-51
2021/06/25 01:04:34;;;;;;;20.23;14.18;;;;;;;14.90;80.92;101205.88;5099042;27;20058;-49
2021/06/25 01:07:00;;;;;;;18.15;13.43;;;;;;;14.82;80.74;101215.63;5077096;28;20488;-49
2021/06/25 01:09:27;;;;;;;18.95;14.30;;;;;;;14.68;81.64;101213.19;5097103;27;20414;-49
2021/06/25 01:11:53;;;;;;;21.88;14.15;;;;;;;14.53;81.89;101214.22;5096981;28;20035;-48
2021/06/25 01:14:22;;;;;;;20.15;13.82;;;;;;;14.42;82.27;101210.84;5095789;27;20039;-51
2021/06/25 01:16:47;;;;;;;17.50;13.00;;;;;;;14.33;82.91;101218.84;5111782;27;20130;-49
2021/06/25 01:19:15;;;;;;;19.00;14.30;;;;;;;14.34;82.37;101212.69;5098815;27;20786;-48
2021/06/25 01:21:42;;;;;;;17.60;13.02;;;;;;;14.54;81.16;101223.84;5096575;28;20043;-51
2021/06/25 01:24:08;;;;;;;17.65;13.98;;;;;;;14.23;82.78;101205.81;5096466;28;20040;-49
2021/06/25 01:26:34;;;;;;;17.90;13.90;;;;;;;14.36;82.37;101213.53;5096931;28;20100;-52
2021/06/25 01:28:59;;;;;;;18.73;13.32;;;;;;;14.61;80.66;101214.97;5097549;28;20044;-49
2021/06/25 01:31:26;;;;;;;17.02;12.65;;;;;;;14.67;79.94;101211.44;5078536;28;20074;-49
2021/06/25 01:33:52;;;;;;;16.80;12.77;;;;;;;14.59;80.70;101216.78;5080092;28;20462;-49
2021/06/25 01:36:18;;;;;;;17.00;12.88;;;;;;;14.69;79.83;101214.94;5096889;28;20039;-49
2021/06/25 01:38:44;;;;;;;19.20;12.70;;;;;;;14.69;79.82;101207.03;5096943;28;20040;-48
2021/06/25 01:41:14;;;;;;;18.75;13.55;;;;;;;14.69;79.94;101208.78;5097499;28;20035;-51
2021/06/25 01:43:44;;;;;;;16.17;12.07;;;;;;;14.81;79.12;101203.34;5096620;28;20487;-49
2021/06/25 01:46:14;;;;;;;16.35;12.55;;;;;;;14.69;79.50;101206.16;5080467;28;20067;-50
2021/06/25 01:48:39;;;;;;;17.75;13.27;;;;;;;14.39;81.21;101205.63;5060999;28;20043;-49
2021/06/25 01:51:05;;;;;;;16.95;12.93;;;;;;;14.41;80.97;101202.09;5097193;28;20042;-48
2021/06/25 01:53:33;;;;;;;17.65;13.65;;;;;;;14.10;82.43;101201.56;5084410;28;20078;-48
2021/06/25 01:56:03;;;;;;;20.70;13.57;;;;;;;14.24;81.68;101199.63;5098081;28;20433;-48
2021/06/25 01:58:30;;;;;;;18.83;13.23;;;;;;;14.03;82.48;101207.78;5096723;28;20040;-48
2021/06/25 02:01:17;;;;;;;17.02;13.52;;;;;;;14.11;82.06;101205.94;5076472;28;20043;-52
2021/06/25 02:03:48;;;;;;;18.80;13.32;;;;;;;14.04;82.32;101199.88;5095239;28;20046;-49
2021/06/25 02:06:15;;;;;;;18.38;13.77;;;;;;;13.91;82.43;101196.47;5095302;28;20416;-49
2021/06/25 02:08:42;;;;;;;18.08;13.32;;;;;;;14.10;81.46;101194.53;5076067;28;20063;-48
2021/06/25 02:11:10;;;;;;;19.98;14.15;;;;;;;13.92;82.40;101186.84;5093820;28;20178;-50
2021/06/25 02:13:36;;;;;;;17.75;13.52;;;;;;;14.07;81.31;101185.84;5077989;28;20040;-49
2021/06/25 02:16:02;;;;;;;23.45;14.88;;;;;;;13.77;82.78;101180.00;5097601;28;20062;-49
2021/06/25 02:18:27;;;;;;;20.25;13.63;;;;;;;13.70;82.99;101184.44;5096535;28;20039;-49
2021/06/25 02:20:56;;;;;;;20.95;13.57;;;;;;;13.65;83.69;101182.72;5060771;28;20400;-49
2021/06/25 02:23:22;;;;;;;18.30;13.35;;;;;;;13.78;82.42;101189.63;5097094;28;20128;-48
2021/06/25 02:25:47;;;;;;;20.98;15.30;;;;;;;13.74;82.44;101193.16;5096864;28;20077;-49
2021/06/25 02:28:13;;;;;;;17.67;14.13;;;;;;;13.78;81.89;101192.25;5096935;28;20543;-49
2021/06/25 02:30:39;;;;;;;19.73;13.65;;;;;;;13.77;82.34;101194.00;5094806;28;20044;-50
2021/06/25 02:33:04;;;;;;;17.25;13.00;;;;;;;14.02;80.79;101190.25;5099413;27;20031;-47
2021/06/25 02:35:30;;;;;;;18.13;13.57;;;;;;;13.81;81.96;101188.72;5101087;27;20035;-53
2021/06/25 02:37:56;;;;;;;18.13;13.88;;;;;;;13.73;82.36;101194.03;5101988;27;20043;-50
2021/06/25 02:40:23;;;;;;;18.98;12.98;;;;;;;13.83;81.58;101186.94;5100319;27;20547;-49
2021/06/25 02:42:48;;;;;;;20.10;14.30;;;;;;;13.50;82.92;101189.88;5100923;27;20492;-48
2021/06/25 02:45:15;;;;;;;20.85;13.77;;;;;;;13.49;83.99;101188.13;5101129;28;20043;-48
2021/06/25 02:47:41;;;;;;;19.70;14.73;;;;;;;13.14;84.67;101197.13;5100847;27;20039;-49
2021/06/25 02:50:08;;;;;;;22.02;14.40;;;;;;;12.93;86.49;101199.00;5101546;27;20043;-49
2021/06/25 02:52:37;;;;;;;19.77;13.88;;;;;;;13.23;84.02;101190.91;5098881;27;20146;-51
2021/06/25 02:55:04;;;;;;;24.25;15.02;;;;;;;13.21;84.28;101187.41;5101337;28;20114;-48
2021/06/25 02:57:29;;;;;;;20.13;14.07;;;;;;;13.08;84.48;101182.28;5099197;28;20499;-49
2021/06/25 02:59:55;;;;;;;23.48;14.93;;;;;;;13.13;84.78;101181.38;5100105;28;20059;-49
2021/06/25 03:02:21;;;;;;;21.83;16.17;;;;;;;12.84;86.02;101187.69;5098645;27;20043;-48
2021/06/25 03:04:46;;;;;;;19.15;14.43;;;;;;;12.99;84.53;101191.94;5098418;27;20050;-50
2021/06/25 03:07:15;;;;;;;20.88;14.65;;;;;;;12.95;85.14;101180.63;5111165;27;20103;-49
2021/06/25 03:09:40;;;;;;;20.90;14.25;;;;;;;12.92;85.41;101189.38;5080022;28;20031;-49
2021/06/25 03:12:07;;;;;;;23.73;15.10;;;;;;;13.05;84.46;101181.44;5099418;27;20538;-49
2021/06/25 03:14:34;;;;;;;17.98;14.13;;;;;;;13.12;83.68;101183.13;5080229;28;20028;-48
2021/06/25 03:17:00;;;;;;;20.33;14.32;;;;;;;12.81;84.91;101182.44;5099781;27;20043;-50
2021/06/25 03:19:25;;;;;;;21.58;15.48;;;;;;;12.85;85.46;101184.16;5082401;28;20240;-47
2021/06/25 03:21:51;;;;;;;20.83;13.85;;;;;;;13.26;82.89;101191.78;5099990;27;20036;-51
2021/06/25 03:24:20;;;;;;;21.95;15.00;;;;;;;13.32;82.34;101182.09;5098682;28;20040;-49
2021/06/25 03:26:46;;;;;;;19.38;13.82;;;;;;;13.17;83.33;101188.34;5101114;27;20370;-50
2021/06/25 03:29:11;;;;;;;20.60;13.50;;;;;;;13.10;83.13;101188.38;5099406;27;20031;-48
2021/06/25 03:31:37;;;;;;;18.25;13.30;;;;;;;13.10;84.05;101179.66;5098376;27;20036;-48
2021/06/25 03:34:02;;;;;;;19.92;13.85;;;;;;;12.89;84.81;101176.28;5085669;28;20028;-50
2021/06/25 03:36:28;;;;;;;20.67;13.98;;;;;;;12.77;84.75;101186.84;5099750;27;20530;-49
2021/06/25 03:38:54;;;;;;;21.40;14.13;;;;;;;12.95;83.98;101173.59;5098710;28;20031;-49
2021/06/25 03:41:19;;;;;;;21.42;14.65;;;;;;;12.64;85.02;101180.81;5099885;28;20442;-48
2021/06/25 03:43:45;;;;;;;21.70;14.80;;;;;;;12.91;84.34;101185.00;5098403;28;20061;-48
2021/06/25 03:46:11;;;;;;;21.83;14.82;;;;;;;12.71;85.57;101193.00;5080570;28;20448;-49
2021/06/25 03:48:36;;;;;;;23.10;14.13;;;;;;;12.79;85.83;101198.19;5079640;28;20043;-49
2021/06/25 03:51:03;;;;;;;22.20;15.13;;;;;;;12.60;87.11;101198.28;5077504;28;20829;-49
2021/06/25 03:53:28;;;;;;;23.55;15.82;;;;;;;12.57;88.22;101193.06;5098151;28;20123;-48
2021/06/25 03:56:10;;;;;;;21.77;15.40;;;;;;;12.70;86.68;101200.88;5098771;27;20043;-47
2021/06/25 03:58:37;;;;;;;25.88;15.95;;;;;;;12.64;87.70;101195.66;5098186;28;20088;-49
2021/06/25 04:01:03;;;;;;;22.13;15.60;;;;;;;12.72;87.57;101199.09;5093875;27;20134;-49
2021/06/25 04:03:29;;;;;;;21.33;14.88;;;;;;;12.67;87.36;101200.88;5079426;28;20572;-49
2021/06/25 04:05:54;;;;;;;24.80;15.93;;;;;;;12.69;88.13;101193.88;5096955;27;20122;-49
2021/06/25 04:08:20;;;;;;;22.33;13.93;;;;;;;13.04;85.53;101200.66;5097453;27;20051;-49
2021/06/25 04:10:46;;;;;;;26.58;16.17;;;;;;;13.15;85.12;101190.09;5076464;28;20020;-49
2021/06/25 04:13:11;;;;;;;22.90;15.32;;;;;;;13.32;84.40;101196.13;5079857;28;20024;-49
2021/06/25 04:15:37;;;;;;;22.95;14.98;;;;;;;13.32;84.35;101195.22;5096270;27;20063;-48
2021/06/25 04:18:04;;;;;;;22.13;14.50;;;;;;;13.37;83.77;101201.34;5097882;28;20526;-50
2021/06/25 04:20:30;;;;;;;21.58;14.43;;;;;;;13.33;84.91;101196.97;5096677;27;20035;-48
2021/06/25 04:22:55;;;;;;;19.90;15.18;;;;;;;13.25;84.41;101195.28;5097301;27;20553;-48
2021/06/25 04:25:21;;;;;;;21.27;14.95;;;;;;;13.15;87.37;101193.59;5097909;27;20027;-48
2021/06/25 04:27:47;;;;;;;23.77;14.82;;;;;;;13.16;86.85;101203.22;5075665;28;20551;-48
2021/06/25 04:30:14;;;;;;;20.85;14.75;;;;;;;13.13;86.98;101200.63;5093975;27;20092;-52
2021/06/25 04:32:42;;;;;;;21.85;15.57;;;;;;;13.05;88.18;101199.78;5092575;27;20508;-48
2021/06/25 04:35:09;;;;;;;21.45;15.30;;;;;;;13.14;86.90;101197.13;5091550;27;20043;-48
2021/06/25 04:37:34;;;;;;;20.48;15.38;;;;;;;13.20;87.35;101201.44;5094705;27;20089;-48
2021/06/25 04:40:00;;;;;;;22.75;15.05;;;;;;;13.24;87.13;101211.06;5059222;27;20039;-48
2021/06/25 04:42:26;;;;;;;21.27;15.35;;;;;;;13.20;87.22;101212.81;5075893;28;20058;-50
2021/06/25 04:44:52;;;;;;;23.98;16.38;;;;;;;13.21;87.61;101211.03;5092813;28;20107;-48
2021/06/25 04:47:18;;;;;;;23.92;16.20;;;;;;;13.26;87.81;101206.66;5093212;28;20483;-48
2021/06/25 04:49:44;;;;;;;26.80;16.45;;;;;;;13.26;87.81;101207.53;5093873;27;20043;-50
2021/06/25 04:52:10;;;;;;;23.85;17.23;;;;;;;13.24;87.67;101201.41;5095992;28;20114;-49
2021/06/25 04:54:35;;;;;;;21.67;16.10;;;;;;;13.27;86.90;101201.38;5092440;27;20036;-48
2021/06/25 04:57:02;;;;;;;24.95;16.73;;;;;;;13.20;87.76;101201.44;5091615;28;20088;-50
2021/06/25 04:59:27;;;;;;;25.20;16.60;;;;;;;13.27;85.95;101198.75;5090076;27;20089;-51
2021/06/25 05:01:54;;;;;;;25.67;17.17;;;;;;;13.40;86.71;101196.97;5097342;27;20043;-49
2021/06/25 05:04:20;;;;;;;25.63;17.65;;;;;;;13.40;86.68;101189.09;5094415;27;20043;-50
2021/06/25 05:06:47;;;;;;;21.73;15.57;;;;;;;13.48;84.83;101185.50;5076143;28;20031;-49
2021/06/25 05:09:16;;;;;;;24.17;17.00;;;;;;;13.51;85.78;101178.47;5092233;28;20043;-50
2021/06/25 05:11:42;;;;;;;;;;;;;;;13.54;85.34;101175.84;5095313;28;20043;-50
2021/06/25 05:14:08;;;;;;;25.70;15.70;;;;;;;13.62;84.38;101186.25;5079195;28;20162;-50
2021/06/25 05:16:34;;;;;;;24.42;17.13;;;;;;;13.68;85.28;101183.59;5093074;27;20089;-49
2021/06/25 05:19:01;;;;;;;24.10;15.32;;;;;;;13.74;84.26;101177.41;5043131;28;20088;-49
2021/06/25 05:21:26;;;;;;;28.10;18.58;;;;;;;13.83;84.84;101168.53;5093202;28;20055;-50
2021/06/25 05:23:52;;;;;;;24.00;16.95;;;;;;;13.96;81.62;101173.66;5093314;27;20040;-49
2021/06/25 05:26:20;;;;;;;23.70;15.52;;;;;;;14.06;80.52;101169.16;5093134;28;20031;-49
2021/06/25 05:28:47;;;;;;;26.60;16.92;;;;;;;14.11;81.84;101171.75;5092224;28;20122;-52
2021/06/25 05:31:13;;;;;;;27.20;19.05;;;;;;;13.99;83.75;101171.91;5096001;27;20055;-53
2021/06/25 05:33:39;;;;;;;25.55;17.83;;;;;;;13.98;83.97;101164.88;5093841;28;20076;-49
2021/06/25 05:36:05;;;;;;;27.70;18.00;;;;;;;14.13;83.20;101167.34;5095586;28;20040;-51
2021/06/25 05:38:31;;;;;;;28.52;18.98;;;;;;;14.27;83.53;101167.19;5094919;28;20038;-49
2021/06/25 05:40:56;;;;;;;28.58;18.85;;;;;;;14.39;82.02;101160.91;5074813;28;20039;-49
2021/06/25 05:43:22;;;;;;;26.58;18.13;;;;;;;14.30;80.50;101168.03;5075520;28;20399;-49
2021/06/25 05:45:48;;;;;;;29.90;20.17;;;;;;;14.59;79.61;101168.53;5093241;28;20124;-50
2021/06/25 05:48:14;;;;;;;29.10;19.92;;;;;;;14.72;79.45;101169.28;5093204;28;20495;-48
2021/06/25 05:50:41;;;;;;;32.33;21.85;;;;;;;14.51;79.66;101165.13;5094377;28;20112;-49
2021/06/25 05:53:06;;;;;;;32.83;20.42;;;;;;;14.48;80.53;101177.44;5073950;28;20039;-48
2021/06/25 05:55:33;;;;;;;35.97;21.83;;;;;;;14.60;80.21;101189.56;5094712;28;20047;-48
2021/06/25 05:57:59;;;;;;;33.08;21.48;;;;;;;14.66;79.95;101190.41;5092690;28;20518;-48
2021/06/25 06:00:24;;;;;;;34.20;22.63;;;;;;;14.83;77.78;101183.16;5092023;28;20047;-48
2021/06/25 06:02:50;;;;;;;34.85;24.08;;;;;;;15.13;76.25;101181.84;5092116;28;20143;-48
2021/06/25 06:05:16;;;;;;;38.03;23.13;;;;;;;15.12;76.41;101179.22;5092206;28;20042;-48
2021/06/25 06:07:41;;;;;;;35.35;23.15;;;;;;;14.80;78.57;101184.06;5095180;27;20035;-49
2021/06/25 06:10:09;;;;;;;35.38;24.40;;;;;;;14.61;78.29;101188.66;5096535;27;20108;-48
2021/06/25 06:12:35;;;;;;;34.58;22.30;;;;;;;15.23;74.56;101182.56;5096702;27;20482;-48
2021/06/25 06:15:01;;;;;;;32.00;21.67;;;;;;;14.96;76.51;101184.69;5079420;28;20035;-49
2021/06/25 06:17:27;;;;;;;33.25;22.60;;;;;;;15.04;75.47;101187.22;5077708;28;20043;-49
2021/06/25 06:19:56;;;;;;;34.10;23.13;;;;;;;15.32;74.02;101186.81;5099203;27;20040;-47
2021/06/25 06:36:23;;;;;;;28.63;19.77;;;;;;;15.48;71.49;101180.38;5097719;27;20314;-49
2021/06/25 06:38:50;;;;;;;29.75;19.10;;;;;;;15.13;73.11;101196.75;5097297;28;20058;-48
2021/06/25 06:41:17;;;;;;;27.40;18.55;;;;;;;15.01;73.23;101186.41;5095254;27;20117;-48
2021/06/25 06:43:43;;;;;;;26.38;17.75;;;;;;;14.96;72.19;101195.22;5096614;27;20062;-48
2021/06/25 06:46:13;;;;;;;23.42;16.85;;;;;;;15.21;71.43;101186.09;5095205;27;20071;-48
2021/06/25 06:48:40;;;;;;;24.05;16.85;;;;;;;14.99;71.72;101191.69;5073736;28;20059;-49
2021/06/25 06:51:09;;;;;;;23.85;16.42;;;;;;;14.97;72.42;101186.44;5098901;27;20049;-48
2021/06/25 06:53:35;;;;;;;18.05;13.63;;;;;;;15.03;70.68;101188.13;5097058;28;20043;-48
2021/06/25 06:56:01;;;;;;;19.70;14.05;;;;;;;15.11;68.52;101185.38;5091411;27;20039;-51
2021/06/25 06:58:28;;;;;;;20.05;14.77;;;;;;;15.30;66.78;101186.84;5096747;28;20472;-49
2021/06/25 07:00:54;;;;;;;19.20;14.15;;;;;;;15.24;65.67;101194.81;5095538;27;20061;-49
2021/06/25 07:03:20;;;;;;;21.05;14.20;;;;;;;15.48;66.74;101182.16;5098239;27;20038;-48
2021/06/25 07:05:46;;;;;;;20.27;15.02;;;;;;;15.45;67.75;101192.72;5076412;28;20035;-49
2021/06/25 07:08:12;;;;;;;22.83;16.08;;;;;;;15.64;67.49;101194.16;5095900;27;20042;-48
2021/06/25 07:10:38;;;;;;;23.55;17.73;;;;;;;15.87;64.77;101195.56;5093940;28;20044;-48
2021/06/25 07:13:03;;;;;;;23.90;16.42;;;;;;;16.03;65.16;101203.19;5092165;28;20028;-48
2021/06/25 07:15:29;;;;;;;24.55;16.90;;;;;;;16.06;65.62;101201.38;5059623;28;20480;-49
2021/06/25 07:17:55;;;;;;;24.77;16.85;;;;;;;16.32;63.35;101197.34;5095577;27;20044;-48
2021/06/25 07:20:21;;;;;;;23.48;16.60;;;;;;;15.94;67.41;101197.19;5094258;27;20586;-50
2021/06/25 07:22:46;;;;;;;22.48;16.85;;;;;;;16.12;65.80;101197.75;5076438;28;20247;-48
2021/06/25 07:25:13;;;;;;;20.70;14.82;;;;;;;16.02;64.49;101201.44;5096785;28;20119;-48
2021/06/25 07:27:40;;;;;;;22.98;16.77;;;;;;;16.10;64.65;101202.16;5075256;28;20035;-49
2021/06/25 07:30:07;;;;;;;21.60;16.20;;;;;;;16.38;63.53;101199.88;5095211;27;20516;-48
2021/06/25 07:32:33;;;;;;;22.30;16.38;;;;;;;16.16;65.59;101199.44;5095603;28;20039;-49
2021/06/25 07:34:59;;;;;;;22.48;17.05;;;;;;;16.41;64.76;101199.78;5076537;28;20232;-48
2021/06/25 07:37:25;;;;;;;19.30;15.48;;;;;;;16.51;63.23;101193.41;5077881;28;20024;-51
2021/06/25 07:39:50;;;;;;;19.98;14.43;;;;;;;16.34;63.44;101196.41;5096864;28;20441;-49
2021/06/25 07:42:16;;;;;;;23.52;16.63;;;;;;;16.49;61.62;101191.69;5060316;27;20047;-49
2021/06/25 07:44:42;;;;;;;20.45;14.70;;;;;;;16.68;61.78;101200.09;5076580;28;20523;-48
2021/06/25 07:47:08;;;;;;;19.85;15.18;;;;;;;16.69;63.49;101201.84;5093696;28;20425;-50
2021/06/25 07:49:34;;;;;;;18.75;15.02;;;;;;;16.93;60.20;101195.16;5095185;27;20471;-47
2021/06/25 07:52:01;;;;;;;20.77;15.95;;;;;;;16.99;61.13;101197.69;5094824;28;20040;-52
2021/06/25 07:54:26;;;;;;;19.20;14.02;;;;;;;16.68;62.67;101195.72;5095116;27;20036;-49
2021/06/25 07:56:52;;;;;;;18.40;13.63;;;;;;;16.37;63.63;101197.25;5094933;28;20042;-49
2021/06/25 07:59:18;;;;;;;16.70;14.07;;;;;;;16.41;61.13;101188.38;5094666;27;20035;-48
2021/06/25 08:01:46;;;;;;;18.02;13.57;;;;;;;16.36;62.54;101187.59;5093599;28;20038;-52
2021/06/25 08:04:11;;;;;;;19.70;13.48;;;;;;;16.61;62.02;101191.44;5095858;27;20039;-50
2021/06/25 08:06:37;;;;;;;17.52;12.20;;;;;;;16.85;61.31;101186.56;5094679;28;20036;-50
2021/06/25 08:09:04;;;;;;;17.00;12.65;;;;;;;16.98;61.21;101188.03;5093309;27;20122;-50
2021/06/25 08:11:31;;;;;;;19.48;14.45;;;;;;;17.14;61.26;101183.25;5076775;28;20596;-50
2021/06/25 08:13:57;;;;;;;19.27;13.57;;;;;;;17.12;59.87;101190.34;5074971;28;20068;-48
2021/06/25 08:16:23;;;;;;;18.77;13.55;;;;;;;17.16;60.07;101181.44;5095433;28;20521;-50
2021/06/25 08:18:56;;;;;;;18.55;14.30;;;;;;;17.00;60.85;101180.06;5095576;27;20035;-49
2021/06/25 08:21:26;;;;;;;21.25;15.50;;;;;;;17.39;59.24;101182.66;5092916;27;20044;-49
2021/06/25 08:23:52;;;;;;;20.85;15.82;;;;;;;17.36;57.80;101180.97;5095989;27;20130;-50
2021/06/25 08:26:18;;;;;;;18.70;13.82;;;;;;;17.13;60.64;101180.66;5094487;27;20039;-51
2021/06/25 08:28:44;;;;;;;17.83;13.73;;;;;;;17.33;61.07;101180.16;5092144;27;20435;-49
2021/06/25 08:31:12;;;;;;;18.65;13.23;;;;;;;17.04;62.02;101175.59;5077884;28;20022;-50
2021/06/25 08:33:38;;;;;;;18.30;13.75;;;;;;;17.15;60.91;101170.91;5091892;28;20400;-52
2021/06/25 08:36:04;;;;;;;16.40;12.88;;;;;;;17.69;59.13;101166.91;5094703;28;20039;-50
2021/06/25 08:38:31;;;;;;;17.55;14.05;;;;;;;17.59;58.89;101162.78;5077299;28;20073;-51
2021/06/25 08:41:00;;;;;;;20.88;14.57;;;;;;;17.80;58.36;101156.91;5092488;27;20054;-48
2021/06/25 08:43:30;;;;;;;19.92;13.50;;;;;;;17.69;58.03;101161.63;5095530;27;20039;-51
2021/06/25 08:45:59;;;;;;;19.08;15.30;;;;;;;17.55;58.52;101159.34;5096345;27;20131;-50
2021/06/25 08:48:26;;;;;;;18.52;13.25;;;;;;;17.75;58.53;101165.88;5074489;28;20074;-50
2021/06/25 08:50:54;;;;;;;20.20;13.73;;;;;;;17.66;60.19;101154.63;5096320;28;20088;-49
2021/06/25 08:53:20;;;;;;;18.92;13.57;;;;;;;17.72;60.39;101163.31;5092742;28;20047;-50
2021/06/25 08:55:46;;;;;;;17.80;12.30;;;;;;;18.10;58.18;101159.66;5094734;27;20514;-49
2021/06/25 08:58:17;;;;;;;18.52;14.48;;;;;;;17.70;58.99;101156.28;5094896;28;20043;-50
2021/06/25 09:00:44;;;;;;;18.35;13.90;;;;;;;17.69;59.29;101159.88;5091971;28;20228;-50
2021/06/25 09:03:30;;;;;;;17.42;13.73;;;;;;;17.69;59.43;101148.41;5095443;27;20059;-49
2021/06/25 09:06:22;;;;;;;14.63;11.43;;;;;;;18.01;57.99;101166.09;5091667;27;20404;-51
2021/06/25 09:08:48;;;;;;;15.70;11.15;;;;;;;17.84;56.90;101157.72;5087599;27;20048;-54
2021/06/25 09:11:32;;;;;;;16.42;11.85;;;;;;;18.14;55.55;101148.09;5092798;28;20046;-51
2021/06/25 09:14:04;;;;;;;19.70;13.25;;;;;;;18.42;55.24;101149.06;5092743;28;20048;-49
2021/06/25 09:16:31;;;;;;;17.27;12.00;;;;;;;18.42;55.81;101144.63;5093360;28;20313;-48
2021/06/25 09:19:00;;;;;;;16.65;12.15;;;;;;;18.57;54.87;101143.31;5094839;28;20071;-49
2021/06/25 09:21:27;;;;;;;16.30;11.73;;;;;;;18.61;55.16;101147.59;5091251;28;20086;-49
2021/06/25 09:23:53;;;;;;;17.52;13.10;;;;;;;18.57;54.44;101138.00;5094392;28;20071;-53
2021/06/25 09:26:22;;;;;;;16.13;10.48;;;;;;;18.77;54.44;101133.88;5092306;28;20402;-50
2021/06/25 09:28:49;;;;;;;16.30;11.32;;;;;;;18.72;54.97;101128.72;5092729;28;20027;-52
2021/06/25 09:31:28;;;;;;;15.68;11.55;;;;;;;18.57;54.26;101130.06;5093113;28;20035;-51
2021/06/25 09:33:57;;;;;;;18.73;11.52;;;;;;;18.34;54.92;101136.03;5095105;28;20610;-50
2021/06/25 09:36:27;;;;;;;15.25;11.00;;;;;;;18.64;57.54;101134.25;5091238;28;20550;-49
2021/06/25 09:39:09;;;;;;;13.50;11.07;;;;;;;18.80;56.78;101133.78;5093733;28;20221;-49
2021/06/25 09:41:37;;;;;;;17.23;11.80;;;;;;;18.55;56.90;101137.16;5089718;28;20043;-53
2021/06/25 09:44:08;;;;;;;16.47;12.40;;;;;;;18.32;54.42;101125.50;5097842;28;20078;-52
2021/06/25 09:46:37;;;;;;;15.00;11.90;;;;;;;18.36;57.18;101131.59;5097764;28;20100;-51
2021/06/25 09:49:06;;;;;;;15.48;12.07;;;;;;;18.65;57.53;101129.81;5097420;27;20412;-51
2021/06/25 09:51:33;;;;;;;15.77;11.50;;;;;;;18.81;55.51;101125.78;5077211;28;20100;-50
2021/06/25 09:54:11;;;;;;;16.67;11.23;;;;;;;18.62;57.03;101130.81;5097078;27;20415;-52
2021/06/25 09:57:01;;;;;;;18.90;13.13;;;;;;;18.46;55.10;101130.38;5094913;28;20035;-50
2021/06/25 09:59:32;;;;;;;19.70;13.40;;;;;;;18.91;56.65;101128.16;5098294;28;20396;-51
2021/06/25 10:02:21;;;;;;;16.95;12.07;;;;;;;18.86;55.71;101128.28;5096203;27;20035;-48
2021/06/25 10:04:56;;;;;;;17.55;12.73;;;;;;;18.86;56.10;101129.16;5094683;28;20469;-49
2021/06/25 10:07:29;;;;;;;15.55;12.15;;;;;;;19.10;55.17;101124.00;5098773;28;20071;-52
2021/06/25 10:09:58;;;;;;;16.08;12.25;;;;;;;19.13;56.99;101121.25;5095764;27;20043;-49
2021/06/25 10:12:24;;;;;;;15.43;11.65;;;;;;;19.19;57.50;101123.69;5075993;28;20039;-51
2021/06/25 10:14:52;;;;;;;13.30;10.52;;;;;;;19.47;52.82;101113.94;5098063;27;20038;-50
2021/06/25 10:17:18;;;;;;;15.30;11.40;;;;;;;19.10;56.81;101113.41;5095765;27;20666;-51
2021/06/25 10:19:49;;;;;;;14.35;11.63;;;;;;;19.26;53.77;101116.41;5112205;27;20454;-49
2021/06/25 10:22:18;;;;;;;15.85;11.98;;;;;;;19.50;52.36;101108.53;5098829;27;20088;-50
2021/06/25 10:24:49;;;;;;;18.73;12.73;;;;;;;19.34;55.77;101116.13;5095056;27;20392;-50
2021/06/25 10:27:17;;;;;;;19.60;13.43;;;;;;;19.51;52.19;101107.63;5097861;27;20062;-50
2021/06/25 10:29:44;;;;;;;15.60;12.55;;;;;;;19.53;51.32;101105.75;5100323;27;20380;-48
2021/06/25 10:32:10;;;;;;;13.60;10.77;;;;;;;19.13;53.68;101113.28;5095261;28;20065;-49
2021/06/25 10:34:37;;;;;;;15.40;11.07;;;;;;;18.96;54.41;101113.00;5098294;27;20547;-50
2021/06/25 10:37:06;;;;;;;16.02;11.10;;;;;;;19.32;57.37;101120.63;5097110;28;20055;-49
2021/06/25 10:39:33;;;;;;;15.18;11.25;;;;;;;19.49;50.91;101107.66;5096724;27;20040;-54
2021/06/25 10:42:03;;;;;;;15.80;11.90;;;;;;;19.45;53.00;101107.81;5097704;27;20172;-48
2021/06/25 10:44:35;;;;;;;16.83;11.43;;;;;;;19.89;49.11;101110.69;5094411;27;20052;-48
2021/06/25 10:47:33;;;;;;;14.75;11.93;;;;;;;19.83;51.27;101121.56;5098320;27;20795;-49
2021/06/25 10:49:59;;;;;;;;;;;;;;;19.99;50.26;101105.91;5078736;27;20059;-49
2021/06/25 10:52:41;;;;;;;13.50;10.70;;;;;;;20.22;49.00;101113.03;5096874;28;19916;-48
2021/06/25 10:55:09;;;;;;;15.45;12.35;;;;;;;19.96;52.18;101116.66;5096190;28;22102;-50
2021/06/25 10:57:56;;;;;;;17.65;12.07;;;;;;;19.95;50.64;101110.50;5097923;27;20099;-50
2021/06/25 11:00:51;;;;;;;14.65;10.90;;;;;;;19.92;49.45;101110.59;5059514;28;20119;-50
2021/06/25 11:03:36;;;;;;;14.25;10.15;;;;;;;20.01;52.22;101118.22;5094072;28;20518;-50
2021/06/25 11:06:09;;;;;;;15.18;12.50;;;;;;;19.80;50.13;101117.22;5094070;27;20129;-49
2021/06/25 11:08:35;;;;;;;14.05;10.75;;;;;;;20.12;48.95;101114.28;5077276;28;20289;-52
2021/06/25 11:11:01;;;;;;;18.90;12.30;;;;;;;20.30;48.50;101110.94;5095392;27;20828;-50
2021/06/25 11:13:35;;;;;;;16.15;11.60;;;;;;;20.15;51.25;101111.53;5096606;28;20037;-49
2021/06/25 11:16:19;;;;;;;15.68;12.82;;;;;;;20.15;48.40;101106.22;5076536;28;20716;-51
2021/06/25 11:18:45;;;;;;;13.70;11.05;;;;;;;20.15;49.67;101100.91;5095452;28;20470;-49
2021/06/25 11:21:11;;;;;;;16.90;12.13;;;;;;;20.33;49.32;101104.66;5112322;27;20043;-49
2021/06/25 11:23:37;;;;;;;16.45;11.48;;;;;;;20.60;49.56;101094.72;5097245;28;20101;-50
2021/06/25 11:26:05;;;;;;;15.45;12.57;;;;;;;20.18;45.45;101099.00;5096572;27;20100;-53